sensor_id;sensor_type;location;lat;lon;timestamp;P1;durP1;ratioP1;P2;durP2;ratioP2
44110;SDS011;29774;52.664;5.074;2023-06-04T00:00:30;7.00;;;2.47;;
44110;SDS011;29774;52.664;5.074;2023-06-04T00:02:55;8.65;;;2.58;;
44110;SDS011;29774;52.664;5.074;2023-06-04T00:05:21;3.85;;;2.75;;
44110;SDS011;29774;52.664;5.074;2023-06-04T00:07:50;4.68;;;2.25;;
44110;SDS011;29774;52.664;5.074;2023-06-04T00:10:18;6.20;;;2.40;;
44110;SDS011;29774;52.664;5.074;2023-06-04T00:12:43;3.92;;;2.38;;
44110;SDS011;29774;52.664;5.074;2023-06-04T00:15:09;3.65;;;2.50;;
44110;SDS011;29774;52.664;5.074;2023-06-04T00:17:35;3.25;;;2.33;;
44110;SDS011;29774;52.664;5.074;2023-06-04T00:20:01;5.38;;;2.50;;
44110;SDS011;29774;52.664;5.074;2023-06-04T00:22:26;6.25;;;2.53;;
44110;SDS011;29774;52.664;5.074;2023-06-04T00:24:52;4.65;;;2.17;;
44110;SDS011;29774;52.664;5.074;2023-06-04T00:27:18;3.13;;;2.20;;
44110;SDS011;29774;52.664;5.074;2023-06-04T00:29:43;7.53;;;2.90;;
44110;SDS011;29774;52.664;5.074;2023-06-04T00:32:09;5.07;;;2.67;;
44110;SDS011;29774;52.664;5.074;2023-06-04T00:34:35;5.05;;;2.80;;
44110;SDS011;29774;52.664;5.074;2023-06-04T00:37:00;6.03;;;2.60;;
44110;SDS011;29774;52.664;5.074;2023-06-04T00:39:29;5.25;;;2.65;;
44110;SDS011;29774;52.664;5.074;2023-06-04T00:41:55;4.43;;;2.22;;
44110;SDS011;29774;52.664;5.074;2023-06-04T00:44:20;5.45;;;2.15;;
44110;SDS011;29774;52.664;5.074;2023-06-04T00:46:51;3.95;;;2.17;;
44110;SDS011;29774;52.664;5.074;2023-06-04T00:49:18;5.10;;;2.58;;
44110;SDS011;29774;52.664;5.074;2023-06-04T00:51:44;4.82;;;2.35;;
44110;SDS011;29774;52.664;5.074;2023-06-04T00:54:10;3.72;;;2.55;;
44110;SDS011;29774;52.664;5.074;2023-06-04T00:56:37;3.50;;;2.20;;
44110;SDS011;29774;52.664;5.074;2023-06-04T00:59:04;5.10;;;3.03;;
44110;SDS011;29774;52.664;5.074;2023-06-04T01:04:31;5.88;;;2.67;;
44110;SDS011;29774;52.664;5.074;2023-06-04T01:07:01;2.75;;;1.88;;
44110;SDS011;29774;52.664;5.074;2023-06-04T01:09:29;4.60;;;2.80;;
44110;SDS011;29774;52.664;5.074;2023-06-04T01:11:55;4.40;;;2.47;;
44110;SDS011;29774;52.664;5.074;2023-06-04T01:14:24;5.43;;;3.17;;
44110;SDS011;29774;52.664;5.074;2023-06-04T01:17:53;4.60;;;2.65;;
44110;SDS011;29774;52.664;5.074;2023-06-04T01:20:02;5.13;;;2.78;;
44110;SDS011;29774;52.664;5.074;2023-06-04T01:22:40;7.47;;;2.20;;
44110;SDS011;29774;52.664;5.074;2023-06-04T01:25:31;5.30;;;2.75;;
44110;SDS011;29774;52.664;5.074;2023-06-04T01:28:06;3.50;;;2.83;;
44110;SDS011;29774;52.664;5.074;2023-06-04T01:30:34;4.25;;;2.83;;
44110;SDS011;29774;52.664;5.074;2023-06-04T01:33:01;6.30;;;2.67;;
44110;SDS011;29774;52.664;5.074;2023-06-04T01:35:28;4.15;;;3.05;;
44110;SDS011;29774;52.664;5.074;2023-06-04T01:37:56;5.10;;;2.63;;
44110;SDS011;29774;52.664;5.074;2023-06-04T01:40:22;4.78;;;2.75;;
44110;SDS011;29774;52.664;5.074;2023-06-04T01:42:48;5.47;;;2.78;;
44110;SDS011;29774;52.664;5.074;2023-06-04T01:45:14;7.20;;;2.72;;
44110;SDS011;29774;52.664;5.074;2023-06-04T01:47:40;6.20;;;2.80;;
44110;SDS011;29774;52.664;5.074;2023-06-04T01:50:06;5.05;;;2.63;;
44110;SDS011;29774;52.664;5.074;2023-06-04T01:52:35;5.90;;;2.88;;
44110;SDS011;29774;52.664;5.074;2023-06-04T01:55:02;3.63;;;2.58;;
44110;SDS011;29774;52.664;5.074;2023-06-04T01:57:36;5.82;;;3.22;;
44110;SDS011;29774;52.664;5.074;2023-06-04T02:00:04;4.72;;;3.45;;
44110;SDS011;29774;52.664;5.074;2023-06-04T02:02:34;6.95;;;3.72;;
44110;SDS011;29774;52.664;5.074;2023-06-04T02:05:06;7.90;;;3.30;;
44110;SDS011;29774;52.664;5.074;2023-06-04T02:07:33;4.55;;;2.80;;
44110;SDS011;29774;52.664;5.074;2023-06-04T02:10:04;5.30;;;2.70;;
44110;SDS011;29774;52.664;5.074;2023-06-04T02:12:35;6.03;;;2.90;;
44110;SDS011;29774;52.664;5.074;2023-06-04T02:15:03;6.28;;;2.53;;
44110;SDS011;29774;52.664;5.074;2023-06-04T02:17:30;3.97;;;2.85;;
44110;SDS011;29774;52.664;5.074;2023-06-04T02:19:57;7.55;;;3.25;;
44110;SDS011;29774;52.664;5.074;2023-06-04T02:22:24;6.63;;;2.95;;
44110;SDS011;29774;52.664;5.074;2023-06-04T02:24:49;6.65;;;3.42;;
44110;SDS011;29774;52.664;5.074;2023-06-04T02:27:15;6.32;;;2.90;;
44110;SDS011;29774;52.664;5.074;2023-06-04T02:29:41;5.88;;;3.10;;
44110;SDS011;29774;52.664;5.074;2023-06-04T02:32:07;7.47;;;3.17;;
44110;SDS011;29774;52.664;5.074;2023-06-04T02:34:33;8.10;;;3.00;;
44110;SDS011;29774;52.664;5.074;2023-06-04T02:36:59;5.28;;;3.10;;
44110;SDS011;29774;52.664;5.074;2023-06-04T02:39:25;4.82;;;2.90;;
44110;SDS011;29774;52.664;5.074;2023-06-04T02:41:50;5.45;;;2.80;;
44110;SDS011;29774;52.664;5.074;2023-06-04T02:44:16;7.40;;;3.50;;
44110;SDS011;29774;52.664;5.074;2023-06-04T02:46:42;7.03;;;3.10;;
44110;SDS011;29774;52.664;5.074;2023-06-04T02:49:09;6.53;;;2.97;;
44110;SDS011;29774;52.664;5.074;2023-06-04T02:51:38;5.22;;;2.70;;
44110;SDS011;29774;52.664;5.074;2023-06-04T02:54:05;6.88;;;2.92;;
44110;SDS011;29774;52.664;5.074;2023-06-04T02:56:30;5.85;;;3.03;;
44110;SDS011;29774;52.664;5.074;2023-06-04T02:58:56;5.00;;;2.72;;
44110;SDS011;29774;52.664;5.074;2023-06-04T03:01:22;6.18;;;3.00;;
44110;SDS011;29774;52.664;5.074;2023-06-04T03:03:49;8.68;;;3.08;;
44110;SDS011;29774;52.664;5.074;2023-06-04T03:06:15;4.78;;;2.95;;
44110;SDS011;29774;52.664;5.074;2023-06-04T03:08:42;8.80;;;2.80;;
44110;SDS011;29774;52.664;5.074;2023-06-04T03:11:08;5.07;;;2.97;;
44110;SDS011;29774;52.664;5.074;2023-06-04T03:13:34;6.50;;;3.38;;
44110;SDS011;29774;52.664;5.074;2023-06-04T03:16:00;6.30;;;2.72;;
44110;SDS011;29774;52.664;5.074;2023-06-04T03:18:27;7.22;;;2.72;;
44110;SDS011;29774;52.664;5.074;2023-06-04T03:20:53;6.20;;;3.30;;
44110;SDS011;29774;52.664;5.074;2023-06-04T03:23:19;6.47;;;3.03;;
44110;SDS011;29774;52.664;5.074;2023-06-04T03:25:45;6.20;;;2.83;;
44110;SDS011;29774;52.664;5.074;2023-06-04T03:28:11;7.45;;;3.00;;
44110;SDS011;29774;52.664;5.074;2023-06-04T03:30:37;5.55;;;2.55;;
44110;SDS011;29774;52.664;5.074;2023-06-04T03:33:02;8.50;;;3.10;;
44110;SDS011;29774;52.664;5.074;2023-06-04T03:35:28;4.70;;;2.60;;
44110;SDS011;29774;52.664;5.074;2023-06-04T03:37:54;4.40;;;2.47;;
44110;SDS011;29774;52.664;5.074;2023-06-04T03:40:20;5.47;;;2.67;;
44110;SDS011;29774;52.664;5.074;2023-06-04T03:42:45;5.30;;;2.72;;
44110;SDS011;29774;52.664;5.074;2023-06-04T03:45:11;4.80;;;2.72;;
44110;SDS011;29774;52.664;5.074;2023-06-04T03:47:37;5.38;;;2.90;;
44110;SDS011;29774;52.664;5.074;2023-06-04T03:50:04;4.65;;;2.55;;
44110;SDS011;29774;52.664;5.074;2023-06-04T03:52:30;4.20;;;2.50;;
44110;SDS011;29774;52.664;5.074;2023-06-04T03:54:56;8.05;;;2.72;;
44110;SDS011;29774;52.664;5.074;2023-06-04T03:57:22;5.97;;;2.80;;
44110;SDS011;29774;52.664;5.074;2023-06-04T03:59:47;8.18;;;2.63;;
44110;SDS011;29774;52.664;5.074;2023-06-04T04:02:13;6.10;;;2.35;;
44110;SDS011;29774;52.664;5.074;2023-06-04T04:04:39;4.25;;;2.58;;
44110;SDS011;29774;52.664;5.074;2023-06-04T04:07:05;6.72;;;3.00;;
44110;SDS011;29774;52.664;5.074;2023-06-04T04:09:31;4.55;;;2.20;;
44110;SDS011;29774;52.664;5.074;2023-06-04T04:11:56;5.97;;;2.58;;
44110;SDS011;29774;52.664;5.074;2023-06-04T04:14:22;6.45;;;2.88;;
44110;SDS011;29774;52.664;5.074;2023-06-04T04:16:48;6.20;;;2.65;;
44110;SDS011;29774;52.664;5.074;2023-06-04T04:19:13;7.68;;;2.72;;
44110;SDS011;29774;52.664;5.074;2023-06-04T04:21:39;9.32;;;2.92;;
44110;SDS011;29774;52.664;5.074;2023-06-04T04:24:04;7.38;;;2.88;;
44110;SDS011;29774;52.664;5.074;2023-06-04T04:26:30;6.20;;;2.72;;
44110;SDS011;29774;52.664;5.074;2023-06-04T04:28:56;6.80;;;2.75;;
44110;SDS011;29774;52.664;5.074;2023-06-04T04:31:22;9.80;;;2.92;;
44110;SDS011;29774;52.664;5.074;2023-06-04T04:33:48;6.53;;;2.70;;
44110;SDS011;29774;52.664;5.074;2023-06-04T04:36:16;4.75;;;2.08;;
44110;SDS011;29774;52.664;5.074;2023-06-04T04:38:43;6.57;;;2.78;;
44110;SDS011;29774;52.664;5.074;2023-06-04T04:41:09;7.40;;;2.40;;
44110;SDS011;29774;52.664;5.074;2023-06-04T04:43:36;8.25;;;3.05;;
44110;SDS011;29774;52.664;5.074;2023-06-04T04:46:04;10.23;;;2.75;;
44110;SDS011;29774;52.664;5.074;2023-06-04T04:48:31;7.32;;;2.80;;
44110;SDS011;29774;52.664;5.074;2023-06-04T04:50:57;7.32;;;3.08;;
44110;SDS011;29774;52.664;5.074;2023-06-04T04:53:23;6.03;;;2.30;;
44110;SDS011;29774;52.664;5.074;2023-06-04T04:55:48;9.32;;;2.80;;
44110;SDS011;29774;52.664;5.074;2023-06-04T04:58:14;5.20;;;2.70;;
44110;SDS011;29774;52.664;5.074;2023-06-04T05:00:41;4.82;;;2.40;;
44110;SDS011;29774;52.664;5.074;2023-06-04T05:03:06;7.55;;;2.88;;
44110;SDS011;29774;52.664;5.074;2023-06-04T05:05:32;5.32;;;2.20;;
44110;SDS011;29774;52.664;5.074;2023-06-04T05:07:58;6.88;;;2.15;;
44110;SDS011;29774;52.664;5.074;2023-06-04T05:10:24;5.80;;;2.35;;
44110;SDS011;29774;52.664;5.074;2023-06-04T05:12:50;7.40;;;2.35;;
44110;SDS011;29774;52.664;5.074;2023-06-04T05:15:17;4.63;;;2.70;;
44110;SDS011;29774;52.664;5.074;2023-06-04T05:17:43;7.05;;;1.92;;
44110;SDS011;29774;52.664;5.074;2023-06-04T05:20:09;4.70;;;2.40;;
44110;SDS011;29774;52.664;5.074;2023-06-04T05:22:36;8.55;;;3.33;;
44110;SDS011;29774;52.664;5.074;2023-06-04T05:25:02;8.65;;;2.58;;
44110;SDS011;29774;52.664;5.074;2023-06-04T05:27:28;6.05;;;2.28;;
44110;SDS011;29774;52.664;5.074;2023-06-04T05:29:56;2.83;;;1.80;;
44110;SDS011;29774;52.664;5.074;2023-06-04T05:32:22;7.78;;;2.30;;
44110;SDS011;29774;52.664;5.074;2023-06-04T05:34:48;10.02;;;3.28;;
44110;SDS011;29774;52.664;5.074;2023-06-04T05:37:14;4.85;;;2.20;;
44110;SDS011;29774;52.664;5.074;2023-06-04T05:39:41;4.45;;;2.58;;
44110;SDS011;29774;52.664;5.074;2023-06-04T05:42:07;5.80;;;2.83;;
44110;SDS011;29774;52.664;5.074;2023-06-04T05:44:33;7.55;;;2.95;;
44110;SDS011;29774;52.664;5.074;2023-06-04T05:46:58;8.75;;;3.50;;
44110;SDS011;29774;52.664;5.074;2023-06-04T05:49:24;5.72;;;3.63;;
44110;SDS011;29774;52.664;5.074;2023-06-04T05:51:51;5.78;;;2.38;;
44110;SDS011;29774;52.664;5.074;2023-06-04T05:54:16;7.72;;;3.72;;
44110;SDS011;29774;52.664;5.074;2023-06-04T05:56:42;7.43;;;3.35;;
44110;SDS011;29774;52.664;5.074;2023-06-04T05:59:07;6.40;;;3.95;;
44110;SDS011;29774;52.664;5.074;2023-06-04T06:01:33;6.15;;;3.00;;
44110;SDS011;29774;52.664;5.074;2023-06-04T06:03:59;10.73;;;5.05;;
44110;SDS011;29774;52.664;5.074;2023-06-04T06:06:25;4.97;;;2.33;;
44110;SDS011;29774;52.664;5.074;2023-06-04T06:08:51;8.13;;;4.68;;
44110;SDS011;29774;52.664;5.074;2023-06-04T06:11:17;9.25;;;4.80;;
44110;SDS011;29774;52.664;5.074;2023-06-04T06:13:43;8.52;;;2.97;;
44110;SDS011;29774;52.664;5.074;2023-06-04T06:16:08;6.63;;;2.70;;
44110;SDS011;29774;52.664;5.074;2023-06-04T06:18:34;8.77;;;2.80;;
44110;SDS011;29774;52.664;5.074;2023-06-04T06:21:00;5.30;;;2.17;;
44110;SDS011;29774;52.664;5.074;2023-06-04T06:23:25;6.30;;;2.28;;
44110;SDS011;29774;52.664;5.074;2023-06-04T06:25:51;9.20;;;2.22;;
44110;SDS011;29774;52.664;5.074;2023-06-04T06:28:17;5.47;;;1.83;;
44110;SDS011;29774;52.664;5.074;2023-06-04T06:30:43;7.70;;;2.53;;
44110;SDS011;29774;52.664;5.074;2023-06-04T06:33:09;9.38;;;3.08;;
44110;SDS011;29774;52.664;5.074;2023-06-04T06:35:35;6.78;;;2.13;;
44110;SDS011;29774;52.664;5.074;2023-06-04T06:38:01;5.70;;;2.03;;
44110;SDS011;29774;52.664;5.074;2023-06-04T06:40:26;6.18;;;1.70;;
44110;SDS011;29774;52.664;5.074;2023-06-04T06:42:52;7.13;;;2.03;;
44110;SDS011;29774;52.664;5.074;2023-06-04T06:45:18;6.63;;;2.10;;
44110;SDS011;29774;52.664;5.074;2023-06-04T06:47:44;6.10;;;2.33;;
44110;SDS011;29774;52.664;5.074;2023-06-04T06:50:10;5.63;;;2.25;;
44110;SDS011;29774;52.664;5.074;2023-06-04T06:52:36;3.90;;;1.35;;
44110;SDS011;29774;52.664;5.074;2023-06-04T06:55:03;5.82;;;1.77;;
44110;SDS011;29774;52.664;5.074;2023-06-04T06:57:29;4.40;;;1.70;;
44110;SDS011;29774;52.664;5.074;2023-06-04T06:59:55;8.48;;;1.90;;
44110;SDS011;29774;52.664;5.074;2023-06-04T07:02:21;4.68;;;1.98;;
44110;SDS011;29774;52.664;5.074;2023-06-04T07:04:46;2.25;;;1.50;;
44110;SDS011;29774;52.664;5.074;2023-06-04T07:07:12;5.50;;;2.17;;
44110;SDS011;29774;52.664;5.074;2023-06-04T07:09:38;4.30;;;2.55;;
44110;SDS011;29774;52.664;5.074;2023-06-04T07:12:03;6.90;;;2.25;;
44110;SDS011;29774;52.664;5.074;2023-06-04T07:14:29;3.90;;;1.75;;
44110;SDS011;29774;52.664;5.074;2023-06-04T07:16:55;3.20;;;1.30;;
44110;SDS011;29774;52.664;5.074;2023-06-04T07:19:20;6.72;;;2.33;;
44110;SDS011;29774;52.664;5.074;2023-06-04T07:21:46;3.50;;;1.48;;
44110;SDS011;29774;52.664;5.074;2023-06-04T07:24:11;2.80;;;1.75;;
44110;SDS011;29774;52.664;5.074;2023-06-04T07:26:37;4.38;;;1.50;;
44110;SDS011;29774;52.664;5.074;2023-06-04T07:29:03;4.55;;;1.95;;
44110;SDS011;29774;52.664;5.074;2023-06-04T07:31:28;4.93;;;1.63;;
44110;SDS011;29774;52.664;5.074;2023-06-04T07:33:54;3.95;;;1.88;;
44110;SDS011;29774;52.664;5.074;2023-06-04T07:36:20;4.28;;;2.17;;
44110;SDS011;29774;52.664;5.074;2023-06-04T07:38:46;4.43;;;2.08;;
44110;SDS011;29774;52.664;5.074;2023-06-04T07:41:11;7.30;;;2.50;;
44110;SDS011;29774;52.664;5.074;2023-06-04T07:43:37;4.65;;;1.95;;
44110;SDS011;29774;52.664;5.074;2023-06-04T07:46:03;4.20;;;1.98;;
44110;SDS011;29774;52.664;5.074;2023-06-04T07:48:29;4.57;;;2.50;;
44110;SDS011;29774;52.664;5.074;2023-06-04T07:50:57;4.97;;;2.20;;
44110;SDS011;29774;52.664;5.074;2023-06-04T07:53:24;4.75;;;2.55;;
44110;SDS011;29774;52.664;5.074;2023-06-04T07:55:50;4.55;;;2.20;;
44110;SDS011;29774;52.664;5.074;2023-06-04T07:58:16;3.88;;;1.83;;
44110;SDS011;29774;52.664;5.074;2023-06-04T08:00:42;7.93;;;2.25;;
44110;SDS011;29774;52.664;5.074;2023-06-04T08:03:08;3.10;;;1.50;;
44110;SDS011;29774;52.664;5.074;2023-06-04T08:05:34;2.22;;;1.33;;
44110;SDS011;29774;52.664;5.074;2023-06-04T08:07:59;1.60;;;1.30;;
44110;SDS011;29774;52.664;5.074;2023-06-04T08:10:25;4.85;;;1.80;;
44110;SDS011;29774;52.664;5.074;2023-06-04T08:12:51;4.97;;;2.25;;
44110;SDS011;29774;52.664;5.074;2023-06-04T08:15:16;4.53;;;2.40;;
44110;SDS011;29774;52.664;5.074;2023-06-04T08:17:42;2.92;;;2.08;;
44110;SDS011;29774;52.664;5.074;2023-06-04T08:20:08;3.05;;;1.65;;
44110;SDS011;29774;52.664;5.074;2023-06-04T08:22:36;3.35;;;1.80;;
44110;SDS011;29774;52.664;5.074;2023-06-04T08:25:02;6.20;;;2.13;;
44110;SDS011;29774;52.664;5.074;2023-06-04T08:27:31;4.70;;;2.05;;
44110;SDS011;29774;52.664;5.074;2023-06-04T08:29:57;6.05;;;2.55;;
44110;SDS011;29774;52.664;5.074;2023-06-04T08:32:23;4.57;;;2.00;;
44110;SDS011;29774;52.664;5.074;2023-06-04T08:34:49;6.22;;;1.80;;
44110;SDS011;29774;52.664;5.074;2023-06-04T08:37:16;5.30;;;1.75;;
44110;SDS011;29774;52.664;5.074;2023-06-04T08:39:42;3.30;;;1.77;;
44110;SDS011;29774;52.664;5.074;2023-06-04T08:42:09;3.33;;;1.80;;
44110;SDS011;29774;52.664;5.074;2023-06-04T08:44:41;4.28;;;1.83;;
44110;SDS011;29774;52.664;5.074;2023-06-04T08:47:08;3.38;;;2.10;;
44110;SDS011;29774;52.664;5.074;2023-06-04T08:49:37;4.85;;;2.38;;
44110;SDS011;29774;52.664;5.074;2023-06-04T08:52:06;6.95;;;2.30;;
44110;SDS011;29774;52.664;5.074;2023-06-04T08:54:32;4.60;;;1.73;;
44110;SDS011;29774;52.664;5.074;2023-06-04T08:56:58;6.18;;;2.40;;
44110;SDS011;29774;52.664;5.074;2023-06-04T08:59:26;4.95;;;2.72;;
44110;SDS011;29774;52.664;5.074;2023-06-04T09:01:53;3.83;;;1.98;;
44110;SDS011;29774;52.664;5.074;2023-06-04T09:04:19;2.72;;;1.95;;
44110;SDS011;29774;52.664;5.074;2023-06-04T09:06:45;4.88;;;2.60;;
44110;SDS011;29774;52.664;5.074;2023-06-04T09:09:12;3.88;;;2.72;;
44110;SDS011;29774;52.664;5.074;2023-06-04T09:11:49;4.45;;;1.70;;
44110;SDS011;29774;52.664;5.074;2023-06-04T09:14:17;5.18;;;2.35;;
44110;SDS011;29774;52.664;5.074;2023-06-04T09:16:44;3.85;;;2.90;;
44110;SDS011;29774;52.664;5.074;2023-06-04T09:19:14;2.28;;;1.75;;
44110;SDS011;29774;52.664;5.074;2023-06-04T09:21:52;8.27;;;2.50;;
44110;SDS011;29774;52.664;5.074;2023-06-04T09:24:20;3.70;;;1.58;;
44110;SDS011;29774;52.664;5.074;2023-06-04T09:26:47;3.75;;;2.40;;
44110;SDS011;29774;52.664;5.074;2023-06-04T09:29:14;7.20;;;3.20;;
44110;SDS011;29774;52.664;5.074;2023-06-04T09:31:40;5.88;;;2.83;;
44110;SDS011;29774;52.664;5.074;2023-06-04T09:34:06;5.55;;;2.53;;
44110;SDS011;29774;52.664;5.074;2023-06-04T09:36:33;6.63;;;3.17;;
44110;SDS011;29774;52.664;5.074;2023-06-04T09:39:00;7.45;;;2.53;;
44110;SDS011;29774;52.664;5.074;2023-06-04T09:41:39;2.58;;;1.50;;
44110;SDS011;29774;52.664;5.074;2023-06-04T09:44:05;5.70;;;3.30;;
44110;SDS011;29774;52.664;5.074;2023-06-04T09:46:30;5.88;;;2.80;;
44110;SDS011;29774;52.664;5.074;2023-06-04T09:49:00;5.85;;;3.17;;
44110;SDS011;29774;52.664;5.074;2023-06-04T09:51:28;6.57;;;3.63;;
44110;SDS011;29774;52.664;5.074;2023-06-04T09:54:03;3.53;;;1.95;;
44110;SDS011;29774;52.664;5.074;2023-06-04T09:56:29;5.15;;;2.75;;
44110;SDS011;29774;52.664;5.074;2023-06-04T09:58:57;2.47;;;1.83;;
44110;SDS011;29774;52.664;5.074;2023-06-04T10:01:26;6.43;;;2.97;;
44110;SDS011;29774;52.664;5.074;2023-06-04T10:03:53;3.83;;;2.42;;
44110;SDS011;29774;52.664;5.074;2023-06-04T10:06:21;4.07;;;2.40;;
44110;SDS011;29774;52.664;5.074;2023-06-04T10:08:50;4.28;;;2.55;;
44110;SDS011;29774;52.664;5.074;2023-06-04T10:11:19;4.70;;;2.83;;
44110;SDS011;29774;52.664;5.074;2023-06-04T10:13:53;6.75;;;2.85;;
44110;SDS011;29774;52.664;5.074;2023-06-04T10:16:22;4.55;;;2.00;;
44110;SDS011;29774;52.664;5.074;2023-06-04T10:18:52;4.07;;;2.05;;
44110;SDS011;29774;52.664;5.074;2023-06-04T10:21:19;3.90;;;2.10;;
44110;SDS011;29774;52.664;5.074;2023-06-04T10:23:45;2.47;;;1.15;;
44110;SDS011;29774;52.664;5.074;2023-06-04T10:26:14;4.57;;;1.88;;
44110;SDS011;29774;52.664;5.074;2023-06-04T10:28:41;6.55;;;2.40;;
44110;SDS011;29774;52.664;5.074;2023-06-04T10:31:08;3.40;;;2.10;;
44110;SDS011;29774;52.664;5.074;2023-06-04T10:33:35;6.57;;;2.90;;
44110;SDS011;29774;52.664;5.074;2023-06-04T10:36:14;6.15;;;1.95;;
44110;SDS011;29774;52.664;5.074;2023-06-04T10:38:48;3.72;;;2.22;;
44110;SDS011;29774;52.664;5.074;2023-06-04T10:41:15;5.95;;;2.05;;
44110;SDS011;29774;52.664;5.074;2023-06-04T10:43:43;3.55;;;1.45;;
44110;SDS011;29774;52.664;5.074;2023-06-04T10:46:11;3.50;;;1.83;;
44110;SDS011;29774;52.664;5.074;2023-06-04T10:48:45;4.18;;;1.25;;
44110;SDS011;29774;52.664;5.074;2023-06-04T10:51:15;6.53;;;2.05;;
44110;SDS011;29774;52.664;5.074;2023-06-04T10:53:41;5.85;;;1.70;;
44110;SDS011;29774;52.664;5.074;2023-06-04T10:56:07;3.17;;;1.60;;
44110;SDS011;29774;52.664;5.074;2023-06-04T10:58:33;3.95;;;2.00;;
44110;SDS011;29774;52.664;5.074;2023-06-04T11:01:00;2.15;;;1.27;;
44110;SDS011;29774;52.664;5.074;2023-06-04T11:03:35;3.20;;;1.38;;
44110;SDS011;29774;52.664;5.074;2023-06-04T11:06:14;3.65;;;1.98;;
44110;SDS011;29774;52.664;5.074;2023-06-04T11:08:41;2.67;;;1.65;;
44110;SDS011;29774;52.664;5.074;2023-06-04T11:11:11;4.03;;;1.52;;
44110;SDS011;29774;52.664;5.074;2023-06-04T11:13:38;5.75;;;2.05;;
44110;SDS011;29774;52.664;5.074;2023-06-04T11:16:13;4.57;;;2.33;;
44110;SDS011;29774;52.664;5.074;2023-06-04T11:18:43;4.60;;;2.00;;
44110;SDS011;29774;52.664;5.074;2023-06-04T11:21:18;4.60;;;1.55;;
44110;SDS011;29774;52.664;5.074;2023-06-04T11:23:44;3.33;;;2.10;;
44110;SDS011;29774;52.664;5.074;2023-06-04T11:26:10;2.42;;;1.42;;
44110;SDS011;29774;52.664;5.074;2023-06-04T11:28:35;3.95;;;2.15;;
44110;SDS011;29774;52.664;5.074;2023-06-04T11:31:02;3.55;;;1.58;;
44110;SDS011;29774;52.664;5.074;2023-06-04T11:33:28;3.90;;;1.52;;
44110;SDS011;29774;52.664;5.074;2023-06-04T11:35:54;2.22;;;1.35;;
44110;SDS011;29774;52.664;5.074;2023-06-04T11:38:20;4.03;;;1.85;;
44110;SDS011;29774;52.664;5.074;2023-06-04T11:40:56;4.72;;;1.63;;
44110;SDS011;29774;52.664;5.074;2023-06-04T11:43:23;2.30;;;1.25;;
44110;SDS011;29774;52.664;5.074;2023-06-04T11:45:49;2.42;;;1.15;;
44110;SDS011;29774;52.664;5.074;2023-06-04T11:48:15;5.47;;;1.60;;
44110;SDS011;29774;52.664;5.074;2023-06-04T11:50:42;3.88;;;1.42;;
44110;SDS011;29774;52.664;5.074;2023-06-04T11:53:09;2.40;;;1.00;;
44110;SDS011;29774;52.664;5.074;2023-06-04T11:55:34;3.22;;;1.30;;
44110;SDS011;29774;52.664;5.074;2023-06-04T11:58:00;3.60;;;1.23;;
44110;SDS011;29774;52.664;5.074;2023-06-04T12:00:26;3.13;;;1.35;;
44110;SDS011;29774;52.664;5.074;2023-06-04T12:02:54;1.65;;;1.15;;
44110;SDS011;29774;52.664;5.074;2023-06-04T12:05:27;2.75;;;1.23;;
44110;SDS011;29774;52.664;5.074;2023-06-04T12:08:03;1.33;;;1.20;;
44110;SDS011;29774;52.664;5.074;2023-06-04T12:10:30;5.53;;;1.83;;
44110;SDS011;29774;52.664;5.074;2023-06-04T12:13:05;2.58;;;1.40;;
44110;SDS011;29774;52.664;5.074;2023-06-04T12:15:31;3.80;;;1.63;;
44110;SDS011;29774;52.664;5.074;2023-06-04T12:17:57;2.65;;;1.17;;
44110;SDS011;29774;52.664;5.074;2023-06-04T12:20:35;4.10;;;2.00;;
44110;SDS011;29774;52.664;5.074;2023-06-04T12:23:02;2.55;;;1.90;;
44110;SDS011;29774;52.664;5.074;2023-06-04T12:25:29;4.32;;;1.40;;
44110;SDS011;29774;52.664;5.074;2023-06-04T12:27:55;4.97;;;2.00;;
44110;SDS011;29774;52.664;5.074;2023-06-04T12:30:22;5.35;;;2.00;;
44110;SDS011;29774;52.664;5.074;2023-06-04T12:32:48;3.95;;;1.25;;
44110;SDS011;29774;52.664;5.074;2023-06-04T12:35:14;4.07;;;1.17;;
44110;SDS011;29774;52.664;5.074;2023-06-04T12:37:41;1.70;;;1.08;;
44110;SDS011;29774;52.664;5.074;2023-06-04T12:40:07;2.83;;;1.70;;
44110;SDS011;29774;52.664;5.074;2023-06-04T12:42:33;2.35;;;1.17;;
44110;SDS011;29774;52.664;5.074;2023-06-04T12:44:59;2.28;;;1.10;;
44110;SDS011;29774;52.664;5.074;2023-06-04T12:47:25;3.85;;;1.10;;
44110;SDS011;29774;52.664;5.074;2023-06-04T12:49:51;2.30;;;1.52;;
44110;SDS011;29774;52.664;5.074;2023-06-04T12:52:17;3.92;;;1.20;;
44110;SDS011;29774;52.664;5.074;2023-06-04T12:54:43;2.55;;;1.30;;
44110;SDS011;29774;52.664;5.074;2023-06-04T12:57:08;2.88;;;1.35;;
44110;SDS011;29774;52.664;5.074;2023-06-04T12:59:34;2.42;;;1.40;;
44110;SDS011;29774;52.664;5.074;2023-06-04T13:02:00;2.97;;;1.10;;
44110;SDS011;29774;52.664;5.074;2023-06-04T13:04:26;3.70;;;1.95;;
44110;SDS011;29774;52.664;5.074;2023-06-04T13:06:51;3.28;;;1.52;;
44110;SDS011;29774;52.664;5.074;2023-06-04T13:09:20;3.13;;;1.58;;
44110;SDS011;29774;52.664;5.074;2023-06-04T13:11:48;2.70;;;1.38;;
44110;SDS011;29774;52.664;5.074;2023-06-04T13:14:13;2.80;;;1.52;;
44110;SDS011;29774;52.664;5.074;2023-06-04T13:16:39;2.33;;;1.27;;
44110;SDS011;29774;52.664;5.074;2023-06-04T13:19:06;1.50;;;1.02;;
44110;SDS011;29774;52.664;5.074;2023-06-04T13:21:32;2.45;;;1.05;;
44110;SDS011;29774;52.664;5.074;2023-06-04T13:23:58;2.88;;;1.55;;
44110;SDS011;29774;52.664;5.074;2023-06-04T13:26:24;2.97;;;1.50;;
44110;SDS011;29774;52.664;5.074;2023-06-04T13:28:50;4.13;;;1.27;;
44110;SDS011;29774;52.664;5.074;2023-06-04T13:31:16;4.25;;;1.80;;
44110;SDS011;29774;52.664;5.074;2023-06-04T13:33:42;3.85;;;1.33;;
44110;SDS011;29774;52.664;5.074;2023-06-04T13:36:08;3.58;;;1.70;;
44110;SDS011;29774;52.664;5.074;2023-06-04T13:38:33;3.10;;;1.30;;
44110;SDS011;29774;52.664;5.074;2023-06-04T13:40:59;1.83;;;1.30;;
44110;SDS011;29774;52.664;5.074;2023-06-04T13:43:25;2.65;;;1.20;;
44110;SDS011;29774;52.664;5.074;2023-06-04T13:45:50;2.53;;;1.00;;
44110;SDS011;29774;52.664;5.074;2023-06-04T13:48:16;4.88;;;1.73;;
44110;SDS011;29774;52.664;5.074;2023-06-04T13:50:42;2.85;;;1.25;;
44110;SDS011;29774;52.664;5.074;2023-06-04T13:53:08;1.45;;;1.17;;
44110;SDS011;29774;52.664;5.074;2023-06-04T13:55:34;2.75;;;1.27;;
44110;SDS011;29774;52.664;5.074;2023-06-04T13:58:00;3.97;;;1.48;;
44110;SDS011;29774;52.664;5.074;2023-06-04T14:00:26;4.38;;;1.35;;
44110;SDS011;29774;52.664;5.074;2023-06-04T14:02:52;2.92;;;1.70;;
44110;SDS011;29774;52.664;5.074;2023-06-04T14:05:19;5.13;;;1.70;;
44110;SDS011;29774;52.664;5.074;2023-06-04T14:07:45;2.90;;;1.00;;
44110;SDS011;29774;52.664;5.074;2023-06-04T14:10:11;3.90;;;1.75;;
44110;SDS011;29774;52.664;5.074;2023-06-04T14:12:37;1.80;;;1.08;;
44110;SDS011;29774;52.664;5.074;2023-06-04T14:15:07;3.67;;;1.45;;
44110;SDS011;29774;52.664;5.074;2023-06-04T14:17:33;1.98;;;1.15;;
44110;SDS011;29774;52.664;5.074;2023-06-04T14:20:00;2.20;;;1.35;;
44110;SDS011;29774;52.664;5.074;2023-06-04T14:22:26;3.25;;;1.52;;
44110;SDS011;29774;52.664;5.074;2023-06-04T14:24:52;3.97;;;1.35;;
44110;SDS011;29774;52.664;5.074;2023-06-04T14:27:17;4.32;;;1.38;;
44110;SDS011;29774;52.664;5.074;2023-06-04T14:29:43;1.73;;;1.52;;
44110;SDS011;29774;52.664;5.074;2023-06-04T14:32:09;3.92;;;1.80;;
44110;SDS011;29774;52.664;5.074;2023-06-04T14:34:34;2.30;;;1.58;;
44110;SDS011;29774;52.664;5.074;2023-06-04T14:37:00;2.83;;;1.60;;
44110;SDS011;29774;52.664;5.074;2023-06-04T14:39:26;1.83;;;1.17;;
44110;SDS011;29774;52.664;5.074;2023-06-04T14:41:52;3.20;;;1.38;;
44110;SDS011;29774;52.664;5.074;2023-06-04T14:44:18;2.50;;;1.25;;
44110;SDS011;29774;52.664;5.074;2023-06-04T14:46:44;2.58;;;1.63;;
44110;SDS011;29774;52.664;5.074;2023-06-04T14:49:10;2.55;;;1.27;;